Time;durP1;ratioP1;P1;durP2;ratioP2;P2;SDS_P1;SDS_P2;PMS_P1;PMS_P2;Temp;Humidity;BMP_temperature;BMP_pressure;BME280_temperature;BME280_humidity;BME280_pressure;Samples;Min_cycle;Max_cycle;Signal;HPM_P1;HPM_P2
2022/06/30 00:00:27;;;;;;;45.45;23.85;;;18.20;99.90;;;;;;5052172;28;20357;-54
2022/06/30 00:02:52;;;;;;;47.13;23.35;;;18.20;99.90;;;;;;5053450;28;20098;-52
2022/06/30 00:05:18;;;;;;;51.28;23.42;;;18.10;99.90;;;;;;5054068;28;20028;-57
2022/06/30 00:07:44;;;;;;;37.40;22.85;;;18.10;99.90;;;;;;5054112;28;20029;-54
2022/06/30 00:10:11;;;;;;;80.72;26.35;;;18.10;99.90;;;;;;5053009;28;20103;-56
2022/06/30 00:12:38;;;;;;;68.13;26.25;;;18.10;99.90;;;;;;5053331;28;20025;-53
2022/06/30 00:15:04;;;;;;;80.63;30.17;;;18.10;99.90;;;;;;5053809;28;20045;-55
2022/06/30 00:17:30;;;;;;;41.92;28.13;;;18.00;99.90;;;;;;5053199;28;20025;-53
2022/06/30 00:19:56;;;;;;;57.85;30.02;;;18.10;99.90;;;;;;5053479;28;20021;-55
2022/06/30 00:22:21;;;;;;;46.33;30.15;;;18.10;99.90;;;;;;5052917;28;20040;-55
2022/06/30 00:24:47;;;;;;;52.03;27.90;;;18.10;99.90;;;;;;5053659;28;20579;-53
2022/06/30 00:27:13;;;;;;;40.65;28.27;;;18.10;99.90;;;;;;5053724;28;20049;-55
2022/06/30 00:29:39;;;;;;;62.45;30.15;;;18.10;99.90;;;;;;5035133;28;20139;-57
2022/06/30 00:32:05;;;;;;;44.03;29.42;;;18.10;99.90;;;;;;5035202;28;20484;-54
2022/06/30 00:34:30;;;;;;;56.47;30.42;;;18.00;99.90;;;;;;5052196;28;20025;-54
2022/06/30 00:36:56;;;;;;;54.42;26.58;;;18.10;99.90;;;;;;5052285;28;20526;-53
2022/06/30 00:39:22;;;;;;;58.88;25.75;;;18.00;99.90;;;;;;5053261;28;20460;-55
2022/06/30 00:41:48;;;;;;;45.00;26.90;;;17.90;99.90;;;;;;5052505;28;20036;-53
2022/06/30 00:44:14;;;;;;;48.03;24.30;;;17.90;99.90;;;;;;5051998;28;20443;-57
2022/06/30 00:46:40;;;;;;;42.33;22.20;;;17.80;99.90;;;;;;5053404;28;20493;-55
2022/06/30 00:49:08;;;;;;;44.95;23.70;;;17.80;99.90;;;;;;5053199;28;20581;-52
2022/06/30 00:51:34;;;;;;;35.60;20.65;;;17.80;99.90;;;;;;5053092;28;20028;-54
2022/06/30 00:54:03;;;;;;;30.05;19.70;;;17.70;99.90;;;;;;5035317;28;20758;-54
2022/06/30 00:56:30;;;;;;;32.80;21.70;;;17.80;99.90;;;;;;5053083;28;20155;-56
2022/06/30 00:59:00;;;;;;;25.00;17.65;;;17.90;99.90;;;;;;5051932;28;20024;-55
2022/06/30 01:01:27;;;;;;;28.23;20.20;;;17.90;99.90;;;;;;5052330;28;20155;-52
2022/06/30 01:03:55;;;;;;;31.52;22.88;;;17.80;99.90;;;;;;5053224;28;20074;-56
2022/06/30 01:06:22;;;;;;;37.65;21.70;;;17.80;99.90;;;;;;5051895;28;20017;-53
2022/06/30 01:08:49;;;;;;;30.75;21.45;;;17.70;99.90;;;;;;5051643;28;20494;-55
2022/06/30 01:14:00;;;;;;;37.30;24.60;;;17.80;99.90;;;;;;5051445;28;20036;-56
2022/06/30 01:16:26;;;;;;;44.22;24.13;;;17.80;99.90;;;;;;5051109;28;20036;-54
2022/06/30 01:18:52;;;;;;;30.75;22.13;;;17.80;99.90;;;;;;5051437;28;20029;-56
2022/06/30 01:21:18;;;;;;;33.47;23.35;;;17.80;99.90;;;;;;5051280;28;20033;-55
2022/06/30 01:23:44;;;;;;;29.08;20.83;;;17.90;99.90;;;;;;5049784;28;20416;-55
2022/06/30 01:26:10;;;;;;;31.52;20.50;;;17.90;99.90;;;;;;5049864;28;20032;-55
2022/06/30 01:28:35;;;;;;;26.52;20.80;;;18.00;99.90;;;;;;5051618;28;20021;-55
2022/06/30 01:31:01;;;;;;;38.92;22.48;;;18.00;99.90;;;;;;5052165;28;20013;-55
2022/06/30 01:33:27;;;;;;;39.03;23.05;;;18.00;99.90;;;;;;5051169;28;20100;-53
2022/06/30 01:35:56;;;;;;;43.63;23.25;;;18.00;99.90;;;;;;5052485;28;20025;-56
2022/06/30 01:38:22;;;;;;;162.38;26.48;;;18.00;99.90;;;;;;5034357;28;20107;-55
2022/06/30 01:40:49;;;;;;;60.63;23.67;;;17.80;99.90;;;;;;5051839;28;20025;-53
2022/06/30 01:43:15;;;;;;;47.22;23.23;;;17.80;99.90;;;;;;5050471;28;20029;-52
2022/06/30 01:45:41;;;;;;;88.93;26.83;;;17.80;99.90;;;;;;5050457;28;20028;-53
2022/06/30 01:48:08;;;;;;;309.60;32.13;;;17.80;99.90;;;;;;5032503;28;20029;-55
2022/06/30 01:50:34;;;;;;;338.33;31.92;;;17.70;99.90;;;;;;5050760;28;20648;-54
2022/06/30 01:53:01;;;;;;;189.02;33.15;;;17.70;99.90;;;;;;5051167;28;20113;-50
2022/06/30 01:55:27;;;;;;;58.83;26.02;;;17.60;99.90;;;;;;5052228;28;20048;-53
2022/06/30 01:57:54;;;;;;;368.98;38.00;;;17.70;99.90;;;;;;5050482;28;20037;-55
2022/06/30 02:00:23;;;;;;;314.95;37.53;;;17.60;99.90;;;;;;5049372;28;20067;-56
2022/06/30 02:02:49;;;;;;;168.30;35.70;;;17.60;99.90;;;;;;5049753;28;20029;-55
2022/06/30 02:05:16;;;;;;;236.07;39.92;;;17.60;99.90;;;;;;5049744;28;20475;-56
2022/06/30 02:07:42;;;;;;;89.78;35.58;;;17.60;99.90;;;;;;5049725;28;20029;-52
2022/06/30 02:10:11;;;;;;;348.70;34.95;;;17.60;99.90;;;;;;5031726;28;20021;-55
2022/06/30 02:12:46;;;;;;;317.90;35.58;;;17.60;99.90;;;;;;5050171;28;20033;-57
2022/06/30 02:15:24;;;;;;;199.68;32.58;;;17.60;99.90;;;;;;5031459;28;20059;-57
2022/06/30 02:17:54;;;;;;;113.63;29.30;;;17.60;99.90;;;;;;5050521;28;20016;-55
2022/06/30 02:20:23;;;;;;;316.63;37.20;;;17.60;99.90;;;;;;5051291;28;20029;-53
2022/06/30 02:22:52;;;;;;;369.90;38.75;;;17.60;99.90;;;;;;5048893;28;20301;-53
2022/06/30 02:25:17;;;;;;;309.63;40.83;;;17.60;99.90;;;;;;5048471;28;20510;-54
2022/06/30 02:27:43;;;;;;;283.63;42.15;;;17.60;99.90;;;;;;5050616;28;20069;-51
2022/06/30 02:30:09;;;;;;;181.70;33.75;;;17.60;99.90;;;;;;5051093;28;20029;-56
2022/06/30 02:32:35;;;;;;;151.68;32.22;;;17.60;99.90;;;;;;5051450;28;20025;-53
2022/06/30 02:35:02;;;;;;;99.57;28.75;;;17.60;99.90;;;;;;5050306;28;20626;-55
2022/06/30 02:37:27;;;;;;;332.98;29.25;;;17.60;99.90;;;;;;5049612;28;20043;-52
2022/06/30 02:39:53;;;;;;;227.20;26.98;;;17.50;99.90;;;;;;5050252;28;20029;-52
2022/06/30 02:42:19;;;;;;;122.13;24.58;;;17.40;99.90;;;;;;5050164;28;20040;-54
2022/06/30 02:44:45;;;;;;;247.93;29.42;;;17.40;99.90;;;;;;5032107;28;20033;-51
2022/06/30 02:47:12;;;;;;;298.27;31.80;;;17.40;99.90;;;;;;5050146;28;20056;-54
2022/06/30 02:49:39;;;;;;;213.38;30.88;;;17.40;99.90;;;;;;5049832;28;20029;-53
2022/06/30 02:52:05;;;;;;;167.20;26.77;;;17.40;99.90;;;;;;5050297;28;20037;-53
2022/06/30 02:54:31;;;;;;;182.68;29.13;;;17.40;99.90;;;;;;5049914;28;20438;-53
2022/06/30 02:56:56;;;;;;;188.95;29.65;;;17.40;99.90;;;;;;5050099;28;20100;-52
2022/06/30 02:59:22;;;;;;;216.27;30.13;;;17.40;99.90;;;;;;5049497;28;20522;-54
2022/06/30 03:01:49;;;;;;;165.88;27.50;;;17.40;99.90;;;;;;5049433;28;20061;-56
2022/06/30 03:04:15;;;;;;;103.03;28.17;;;17.30;99.90;;;;;;5033385;28;20036;-51
2022/06/30 03:06:41;;;;;;;107.88;27.00;;;17.40;99.90;;;;;;5052242;28;20104;-53
2022/06/30 03:09:07;;;;;;;101.75;24.63;;;17.40;99.90;;;;;;5053762;28;20306;-51
2022/06/30 03:11:33;;;;;;;205.05;27.17;;;17.40;99.90;;;;;;5052764;28;20044;-53
2022/06/30 03:13:59;;;;;;;69.88;22.40;;;17.30;99.90;;;;;;5053445;28;20029;-51
2022/06/30 03:16:24;;;;;;;95.88;23.02;;;17.30;99.90;;;;;;5053685;28;20462;-53
2022/06/30 03:18:52;;;;;;;180.93;25.80;;;17.40;99.90;;;;;;5053386;28;20033;-52
2022/06/30 03:21:18;;;;;;;57.55;21.52;;;17.50;99.90;;;;;;5053471;28;20138;-51
2022/06/30 03:23:44;;;;;;;147.30;27.65;;;17.50;99.90;;;;;;5053628;28;20500;-52
2022/06/30 03:26:10;;;;;;;152.13;23.80;;;17.40;99.90;;;;;;5053644;28;20027;-53
2022/06/30 03:28:35;;;;;;;133.73;26.13;;;17.40;99.90;;;;;;5035595;28;20029;-52
2022/06/30 03:31:01;;;;;;;159.25;24.13;;;17.40;99.90;;;;;;5053506;28;20369;-55
2022/06/30 03:33:27;;;;;;;73.65;22.63;;;17.40;99.90;;;;;;5052103;28;20021;-51
2022/06/30 03:35:53;;;;;;;156.82;21.52;;;17.40;99.90;;;;;;5053599;28;20017;-56
2022/06/30 03:38:19;;;;;;;150.77;22.92;;;17.40;99.90;;;;;;5051348;28;20372;-56
2022/06/30 03:40:45;;;;;;;148.50;20.27;;;17.40;99.90;;;;;;5033606;28;20028;-54
2022/06/30 03:43:11;;;;;;;62.58;18.63;;;17.30;99.90;;;;;;5053571;28;20025;-57
2022/06/30 03:45:37;;;;;;;173.77;22.38;;;17.30;99.90;;;;;;5054682;28;20566;-55
2022/06/30 03:48:04;;;;;;;172.98;21.95;;;17.30;99.90;;;;;;5055192;28;20029;-56
2022/06/30 03:50:31;;;;;;;103.53;20.13;;;17.30;99.90;;;;;;5055267;28;20021;-58
2022/06/30 03:52:58;;;;;;;133.50;20.95;;;17.30;99.90;;;;;;5054116;28;20677;-55
2022/06/30 03:55:24;;;;;;;107.32;17.92;;;17.30;99.90;;;;;;5053469;28;20028;-53
2022/06/30 03:57:50;;;;;;;303.80;24.20;;;17.30;99.90;;;;;;5052921;28;20017;-57
2022/06/30 04:00:16;;;;;;;179.98;18.88;;;17.30;99.90;;;;;;5041037;28;20025;-54
2022/06/30 04:02:42;;;;;;;194.80;21.38;;;17.20;99.90;;;;;;5032351;28;20055;-54
2022/06/30 04:05:08;;;;;;;98.10;16.30;;;17.20;99.90;;;;;;5032940;28;20041;-56
2022/06/30 04:07:41;;;;;;;296.10;24.10;;;17.20;99.90;;;;;;5014652;28;20025;-55
2022/06/30 04:10:08;;;;;;;;;;;17.20;99.90;;;;;;5045168;28;20451;-53
2022/06/30 04:12:33;;;;;;;51.78;18.77;;;17.20;99.90;;;;;;5052382;28;19912;-52
2022/06/30 04:14:59;;;;;;;35.55;15.25;;;17.20;99.90;;;;;;5051441;28;20365;-55
2022/06/30 04:17:25;;;;;;;103.78;15.77;;;17.10;99.90;;;;;;5052391;28;20025;-55
2022/06/30 04:19:50;;;;;;;176.10;18.08;;;17.20;99.90;;;;;;5052816;28;20099;-56
2022/06/30 04:22:16;;;;;;;227.20;18.58;;;17.20;99.90;;;;;;5051648;28;20464;-54
2022/06/30 04:24:41;;;;;;;80.65;16.45;;;17.00;99.90;;;;;;5051323;28;20380;-53
2022/06/30 04:27:08;;;;;;;91.75;16.08;;;17.00;99.90;;;;;;5051929;28;20116;-56
2022/06/30 04:29:33;;;;;;;72.70;16.40;;;17.10;99.90;;;;;;5051863;28;20036;-55
2022/06/30 04:34:43;;;;;;;39.88;15.00;;;17.00;99.90;;;;;;5053155;28;20035;-54
2022/06/30 04:37:09;;;;;;;63.80;13.15;;;17.20;99.90;;;;;;5052415;28;20025;-55
2022/06/30 04:39:35;;;;;;;18.00;12.82;;;17.20;99.90;;;;;;5052226;28;20388;-53
2022/06/30 04:42:00;;;;;;;13.95;10.27;;;17.20;99.90;;;;;;5051992;28;20230;-55
2022/06/30 04:44:26;;;;;;;32.33;11.88;;;17.40;99.90;;;;;;5051987;28;20086;-53
2022/06/30 04:46:52;;;;;;;28.90;12.18;;;17.40;99.90;;;;;;5053008;28;20108;-52
2022/06/30 04:49:17;;;;;;;17.60;12.77;;;17.40;99.90;;;;;;5051482;28;20029;-55
2022/06/30 04:51:43;;;;;;;21.13;12.30;;;17.40;99.90;;;;;;5052034;28;20060;-57
2022/06/30 04:54:08;;;;;;;23.23;11.13;;;17.60;99.90;;;;;;5052202;28;20041;-56
2022/06/30 04:56:34;;;;;;;40.10;11.10;;;17.80;99.90;;;;;;5051533;28;20511;-56
2022/06/30 04:59:00;;;;;;;17.80;12.52;;;17.80;99.90;;;;;;5052028;28;20081;-53
2022/06/30 05:01:26;;;;;;;26.77;12.20;;;17.70;99.90;;;;;;5051590;28;20112;-55
2022/06/30 05:03:52;;;;;;;34.78;12.55;;;17.90;99.90;;;;;;5051803;28;20077;-53
2022/06/30 05:06:17;;;;;;;48.13;12.20;;;18.00;99.90;;;;;;5033830;28;20155;-57
2022/06/30 05:08:43;;;;;;;22.83;12.02;;;18.10;99.90;;;;;;5052429;28;20036;-54
2022/06/30 05:11:09;;;;;;;18.95;12.73;;;18.00;99.90;;;;;;5052846;28;20029;-55
2022/06/30 05:13:34;;;;;;;12.43;10.70;;;18.10;99.90;;;;;;5052274;28;20107;-52
2022/06/30 05:16:02;;;;;;;15.13;10.57;;;18.30;99.90;;;;;;5052745;28;20052;-54
2022/06/30 05:18:28;;;;;;;12.18;9.82;;;18.50;99.90;;;;;;5053019;28;20052;-57
2022/06/30 05:20:54;;;;;;;11.38;10.18;;;18.40;99.90;;;;;;5033774;28;20029;-57
2022/06/30 05:23:20;;;;;;;15.13;12.43;;;18.30;99.90;;;;;;5051593;28;20373;-55
2022/06/30 05:28:30;;;;;;;15.85;12.70;;;18.20;99.90;;;;;;5050096;28;20430;-54
2022/06/30 05:30:56;;;;;;;18.95;13.13;;;18.10;99.90;;;;;;5050733;28;20024;-51
2022/06/30 05:33:23;;;;;;;13.00;10.48;;;18.20;99.90;;;;;;5050121;28;20472;-54
2022/06/30 05:35:50;;;;;;;15.45;12.43;;;18.20;99.90;;;;;;5050233;28;20036;-55
2022/06/30 05:38:17;;;;;;;14.23;11.80;;;18.20;99.90;;;;;;5049655;28;20029;-53
2022/06/30 05:40:45;;;;;;;16.80;11.88;;;18.10;99.90;;;;;;5049844;28;20025;-54
2022/06/30 05:43:15;;;;;;;18.63;12.57;;;18.20;99.90;;;;;;5049341;28;20124;-57
2022/06/30 05:45:42;;;;;;;16.92;13.52;;;18.30;99.90;;;;;;5050606;28;20021;-53
2022/06/30 05:48:08;;;;;;;18.75;12.82;;;18.40;99.90;;;;;;5050514;28;20455;-56
2022/06/30 05:50:34;;;;;;;23.23;18.35;;;18.40;99.90;;;;;;5051316;28;20052;-58
2022/06/30 05:52:59;;;;;;;20.10;15.60;;;18.30;99.90;;;;;;5051354;28;20084;-58
2022/06/30 05:55:25;;;;;;;15.60;14.02;;;18.40;99.90;;;;;;5051144;28;20033;-54
2022/06/30 05:57:55;;;;;;;15.77;14.18;;;18.60;99.90;;;;;;5050695;28;20116;-56
2022/06/30 06:00:24;;;;;;;15.57;12.80;;;18.60;99.90;;;;;;5051122;28;20025;-53
2022/06/30 06:02:50;;;;;;;16.85;14.70;;;18.80;99.90;;;;;;5050429;28;20057;-58
2022/06/30 06:05:16;;;;;;;21.02;16.20;;;18.60;99.90;;;;;;5051171;28;20059;-54
2022/06/30 06:07:42;;;;;;;20.95;16.42;;;18.40;99.90;;;;;;5051292;28;20033;-58
2022/06/30 06:10:09;;;;;;;17.77;15.77;;;18.30;99.90;;;;;;5051945;28;20020;-55
2022/06/30 06:12:35;;;;;;;16.85;15.05;;;18.20;99.90;;;;;;5051582;28;20037;-57
2022/06/30 06:15:01;;;;;;;17.02;14.10;;;18.40;99.90;;;;;;5050165;28;20041;-70
2022/06/30 06:17:29;;;;;;;16.52;14.30;;;18.60;99.90;;;;;;5050819;28;20116;-55
2022/06/30 06:19:54;;;;;;;14.00;12.52;;;18.80;99.90;;;;;;5051419;28;20021;-55
2022/06/30 06:22:20;;;;;;;15.18;12.43;;;18.90;99.90;;;;;;5050879;28;20404;-57
2022/06/30 06:24:46;;;;;;;13.60;11.95;;;19.10;99.90;;;;;;5051508;28;20036;-52
2022/06/30 06:27:12;;;;;;;14.15;12.75;;;19.20;99.90;;;;;;5051418;28;20021;-55
2022/06/30 06:29:37;;;;;;;15.57;13.48;;;19.20;99.90;;;;;;5051528;28;20032;-52
2022/06/30 06:32:03;;;;;;;16.08;14.38;;;19.10;99.90;;;;;;5051419;28;20056;-51
2022/06/30 06:34:29;;;;;;;17.92;12.57;;;19.30;99.90;;;;;;5051506;28;20048;-49
2022/06/30 06:36:54;;;;;;;16.80;14.02;;;19.50;99.90;;;;;;5051208;28;20678;-55
2022/06/30 06:39:20;;;;;;;20.77;14.10;;;19.40;99.90;;;;;;5050733;28;20403;-51
2022/06/30 06:41:46;;;;;;;15.43;13.05;;;19.50;99.90;;;;;;5051512;28;20023;-55
2022/06/30 06:44:11;;;;;;;18.23;12.85;;;19.50;99.90;;;;;;5051367;28;20040;-51
2022/06/30 06:46:38;;;;;;;15.23;13.32;;;20.00;99.90;;;;;;5051310;28;20066;-56
2022/06/30 06:49:06;;;;;;;17.42;13.90;;;20.20;99.90;;;;;;5050886;28;20442;-53
2022/06/30 06:51:34;;;;;;;15.32;13.43;;;20.00;99.90;;;;;;5050750;28;20028;-54
2022/06/30 06:54:01;;;;;;;16.15;13.68;;;19.90;99.90;;;;;;5034271;28;20029;-52
2022/06/30 06:56:27;;;;;;;14.55;13.05;;;20.10;99.90;;;;;;5050099;28;20029;-51
2022/06/30 06:58:53;;;;;;;21.67;12.88;;;20.20;99.90;;;;;;5050650;28;20082;-54
2022/06/30 07:01:19;;;;;;;14.88;13.07;;;20.40;99.90;;;;;;5050255;28;20032;-52
2022/06/30 07:03:45;;;;;;;16.42;13.73;;;20.40;99.90;;;;;;5051006;28;20025;-55
2022/06/30 07:06:11;;;;;;;17.20;14.63;;;20.20;99.90;;;;;;5051051;28;20029;-54
2022/06/30 07:08:37;;;;;;;16.25;14.00;;;20.40;99.90;;;;;;5050865;28;20042;-56
2022/06/30 07:11:03;;;;;;;16.75;13.35;;;20.70;99.90;;;;;;5050993;28;20021;-51
2022/06/30 07:13:30;;;;;;;18.95;13.30;;;20.80;99.90;;;;;;5050931;28;20071;-52
2022/06/30 07:15:55;;;;;;;15.93;13.98;;;20.80;99.90;;;;;;5050410;28;20041;-55
2022/06/30 07:18:21;;;;;;;14.57;13.00;;;20.90;99.90;;;;;;5050635;28;20419;-55
2022/06/30 07:20:48;;;;;;;14.07;12.48;;;20.70;99.90;;;;;;5049959;28;20021;-53
2022/06/30 07:23:14;;;;;;;16.45;12.38;;;21.00;99.90;;;;;;5050374;28;20552;-53
2022/06/30 07:25:40;;;;;;;18.33;14.85;;;21.30;99.90;;;;;;5032580;28;20036;-54
2022/06/30 07:28:06;;;;;;;19.77;15.57;;;21.40;99.90;;;;;;5050173;28;20020;-50
2022/06/30 07:30:32;;;;;;;22.60;15.43;;;21.30;99.90;;;;;;5050294;28;20040;-53
2022/06/30 07:32:57;;;;;;;21.83;16.13;;;21.20;99.90;;;;;;5050670;28;20031;-52
2022/06/30 07:35:23;;;;;;;20.02;16.92;;;20.90;99.90;;;;;;5050662;28;20021;-53
2022/06/30 07:37:49;;;;;;;19.55;16.98;;;20.80;99.90;;;;;;5050554;28;20083;-53
2022/06/30 07:40:15;;;;;;;21.25;17.77;;;21.20;99.90;;;;;;5050611;28;20027;-55
2022/06/30 07:42:41;;;;;;;21.77;17.73;;;21.20;99.90;;;;;;5050958;28;20483;-54
2022/06/30 07:45:08;;;;;;;22.40;16.58;;;21.10;99.90;;;;;;5051138;28;20434;-53
2022/06/30 07:47:34;;;;;;;17.55;15.63;;;21.20;99.90;;;;;;5050372;28;20056;-54
2022/06/30 07:50:00;;;;;;;18.40;16.48;;;21.50;99.90;;;;;;5052086;28;20056;-53
2022/06/30 07:52:26;;;;;;;20.02;16.13;;;21.60;99.90;;;;;;5054583;28;20111;-57
2022/06/30 07:54:52;;;;;;;24.95;18.50;;;21.20;99.90;;;;;;5054627;28;20151;-57
2022/06/30 07:57:21;;;;;;;19.95;17.52;;;21.00;99.90;;;;;;5054321;28;20067;-56
2022/06/30 07:59:47;;;;;;;23.13;17.50;;;21.40;99.90;;;;;;5054362;28;20067;-54
2022/06/30 08:02:13;;;;;;;21.38;17.77;;;21.70;99.90;;;;;;5053854;28;20060;-57
2022/06/30 08:04:39;;;;;;;20.63;16.67;;;21.40;99.90;;;;;;5054142;28;20025;-55
2022/06/30 08:07:05;;;;;;;19.00;17.10;;;21.60;99.90;;;;;;5054432;28;20070;-53
2022/06/30 08:09:33;;;;;;;21.95;17.90;;;21.80;99.90;;;;;;5036220;28;20108;-57
2022/06/30 08:11:59;;;;;;;15.65;13.27;;;21.70;99.90;;;;;;5036279;28;20013;-56
2022/06/30 08:14:25;;;;;;;21.20;12.98;;;21.80;99.90;;;;;;5053604;28;20045;-57
2022/06/30 08:16:51;;;;;;;16.10;13.07;;;22.10;99.90;;;;;;5053666;28;20123;-53
2022/06/30 08:19:19;;;;;;;18.70;13.45;;;22.10;99.90;;;;;;5036136;28;20033;-52
2022/06/30 08:21:45;;;;;;;17.40;13.02;;;22.20;99.90;;;;;;5054061;28;20067;-51
2022/06/30 08:24:11;;;;;;;20.05;12.32;;;22.20;99.90;;;;;;5054155;28;20025;-55
2022/06/30 08:26:37;;;;;;;15.70;11.77;;;22.60;99.90;;;;;;5053752;28;20075;-52
2022/06/30 08:29:03;;;;;;;13.90;9.63;;;22.70;99.90;;;;;;5053991;28;20402;-53
2022/06/30 08:31:29;;;;;;;11.40;9.90;;;22.90;99.90;;;;;;5053566;28;20078;-53
2022/06/30 08:33:55;;;;;;;13.23;9.88;;;23.20;99.90;;;;;;5053634;28;20037;-56
2022/06/30 08:36:22;;;;;;;12.13;9.95;;;23.40;99.90;;;;;;5054366;28;20033;-58
2022/06/30 08:38:48;;;;;;;11.30;8.07;;;23.60;99.90;;;;;;5035664;28;20064;-54
2022/06/30 08:44:00;;;;;;;12.77;8.70;;;23.90;99.90;;;;;;5047756;28;20090;-56
2022/06/30 08:46:27;;;;;;;16.17;8.30;;;23.90;99.90;;;;;;5035026;28;20120;-53
2022/06/30 08:48:54;;;;;;;13.27;8.35;;;23.90;99.90;;;;;;5053482;28;20082;-55
2022/06/30 08:51:21;;;;;;;11.40;9.80;;;24.00;99.90;;;;;;5053135;28;20396;-53
2022/06/30 08:53:51;;;;;;;11.18;8.55;;;24.00;99.90;;;;;;5053206;28;20035;-56
2022/06/30 08:56:17;;;;;;;11.55;7.75;;;23.80;99.90;;;;;;5053426;28;20029;-53
2022/06/30 08:58:44;;;;;;;13.77;8.40;;;24.00;99.90;;;;;;5053087;28;20025;-53
2022/06/30 09:01:09;;;;;;;10.15;7.82;;;24.10;99.90;;;;;;5052704;28;20029;-54
2022/06/30 09:03:38;;;;;;;12.93;7.75;;;23.90;99.90;;;;;;5052843;28;20033;-55
2022/06/30 09:06:04;;;;;;;9.73;7.32;;;24.10;99.90;;;;;;5035149;28;20021;-52
2022/06/30 09:08:30;;;;;;;11.10;7.40;;;24.40;99.90;;;;;;5052487;28;20419;-51
2022/06/30 09:10:56;;;;;;;13.60;7.45;;;24.40;99.90;;;;;;5052886;28;20025;-54
2022/06/30 09:13:23;;;;;;;11.55;6.18;;;24.40;99.90;;;;;;5052759;28;20082;-53
2022/06/30 09:15:49;;;;;;;10.63;7.72;;;24.50;99.90;;;;;;5018679;28;20124;-53
2022/06/30 09:18:26;;;;;;;8.88;8.07;;;24.40;99.90;;;;;;5052549;28;20033;-57
2022/06/30 09:20:53;;;;;;;17.95;7.47;;;24.50;99.90;;;;;;5052703;28;20112;-54
2022/06/30 09:23:24;;;;;;;10.63;7.45;;;24.80;99.90;;;;;;5052145;28;20120;-57
2022/06/30 09:25:52;;;;;;;11.50;8.35;;;25.10;99.90;;;;;;5052334;28;20025;-54
2022/06/30 09:28:50;;;;;;;17.75;10.60;;;25.20;99.90;;;;;;5052400;28;20100;-53
2022/06/30 09:31:34;;;;;;;13.70;11.05;;;25.20;99.90;;;;;;5049684;28;20078;-55
2022/06/30 09:34:16;;;;;;;24.48;11.10;;;25.40;99.90;;;;;;5032496;28;20024;-55
2022/06/30 09:36:42;;;;;;;15.98;9.70;;;25.60;99.90;;;;;;5032654;28;20017;-56
2022/06/30 09:39:10;;;;;;;11.80;9.95;;;25.70;99.90;;;;;;5014724;28;20400;-55
2022/06/30 09:41:39;;;;;;;18.73;8.40;;;25.70;99.90;;;;;;5032412;28;20033;-52
2022/06/30 09:44:24;;;;;;;9.40;8.02;;;25.50;99.90;;;;;;5040015;28;20059;-57
2022/06/30 09:47:10;;;;;;;17.60;8.88;;;25.80;99.90;;;;;;5051953;28;20108;-53
2022/06/30 09:49:44;;;;;;;10.63;7.85;;;26.00;99.90;;;;;;5051225;28;20021;-54
2022/06/30 09:52:24;;;;;;;8.65;6.97;;;26.00;99.90;;;;;;5051384;28;20040;-53
2022/06/30 09:55:01;;;;;;;16.88;8.65;;;26.40;99.90;;;;;;5051321;28;20029;-50
2022/06/30 09:57:29;;;;;;;11.07;7.15;;;26.40;99.90;;;;;;5051838;28;20030;-56
2022/06/30 10:00:00;;;;;;;8.73;5.85;;;26.80;99.90;;;;;;5033808;28;20494;-53
2022/06/30 10:02:35;;;;;;;8.25;5.90;;;26.40;99.90;;;;;;5051441;28;20029;-57
2022/06/30 10:05:02;;;;;;;13.07;6.45;;;26.70;99.90;;;;;;5051929;28;20603;-56
2022/06/30 10:07:29;;;;;;;8.27;6.40;;;26.80;99.90;;;;;;5051473;28;20512;-57
2022/06/30 10:09:55;;;;;;;7.40;5.72;;;26.80;99.90;;;;;;5051277;28;20134;-57
2022/06/30 10:12:24;;;;;;;10.82;5.10;;;26.90;99.90;;;;;;5051104;28;20057;-57
2022/06/30 10:14:52;;;;;;;6.57;4.80;;;27.00;99.90;;;;;;5020038;28;20049;-58
2022/06/30 10:17:21;;;;;;;8.50;4.82;;;27.10;99.90;;;;;;5020187;28;20211;-58
2022/06/30 10:19:48;;;;;;;7.13;4.43;;;27.30;99.90;;;;;;5019716;28;20036;-56
2022/06/30 10:22:15;;;;;;;10.25;4.05;;;27.30;99.90;;;;;;5022943;28;20033;-55
2022/06/30 10:24:41;;;;;;;13.82;5.25;;;27.10;99.90;;;;;;5021536;28;20033;-57
2022/06/30 10:27:15;;;;;;;11.95;5.28;;;27.10;99.90;;;;;;5021459;28;20018;-54
2022/06/30 10:29:56;;;;;;;10.80;4.80;;;27.30;99.90;;;;;;5021440;28;20033;-56
2022/06/30 10:32:29;;;;;;;11.05;4.50;;;27.80;99.90;;;;;;5023450;28;20034;-58
2022/06/30 10:35:06;;;;;;;32.53;10.18;;;27.90;99.90;;;;;;5020594;28;20049;-55
2022/06/30 10:37:57;;;;;;;14.20;6.13;;;27.90;99.90;;;;;;5017327;28;20473;-58
2022/06/30 10:40:46;;;;;;;10.30;4.90;;;28.00;99.90;;;;;;5016009;28;20046;-56
2022/06/30 10:43:14;;;;;;;14.00;5.07;;;27.90;99.90;;;;;;4992453;28;20088;-57
2022/06/30 10:46:02;;;;;;;9.65;5.30;;;28.00;99.90;;;;;;5020042;28;20041;-58
2022/06/30 10:48:53;;;;;;;7.80;4.72;;;28.10;99.90;;;;;;5022487;28;20029;-55
2022/06/30 10:51:19;;;;;;;9.05;5.15;;;28.00;99.90;;;;;;5021152;28;20043;-59
2022/06/30 10:53:45;;;;;;;9.38;4.05;;;28.30;99.90;;;;;;5020262;28;20342;-56
2022/06/30 10:56:11;;;;;;;10.93;5.28;;;28.50;99.90;;;;;;5020434;28;20116;-57
2022/06/30 10:58:37;;;;;;;6.38;3.65;;;28.40;99.90;;;;;;5023700;28;20075;-55
2022/06/30 11:01:10;;;;;;;9.30;4.60;;;28.50;99.90;;;;;;5021289;28;20053;-57
2022/06/30 11:03:37;;;;;;;10.82;4.15;;;28.40;99.90;;;;;;5023888;28;20030;-52
2022/06/30 11:06:16;;;;;;;9.77;4.32;;;28.30;99.90;;;;;;5039363;28;20045;-58
2022/06/30 11:08:57;;;;;;;7.55;4.07;;;28.60;99.60;;;;;;5034240;28;20029;-57
2022/06/30 11:11:23;;;;;;;13.90;4.80;;;28.40;97.90;;;;;;5049456;28;20110;-55
2022/06/30 11:13:49;;;;;;;8.27;5.00;;;28.40;99.40;;;;;;5030241;28;20380;-58
2022/06/30 11:16:17;;;;;;;10.50;5.80;;;28.60;99.90;;;;;;5049545;28;20057;-58
2022/06/30 11:18:42;;;;;;;12.80;5.38;;;28.70;99.90;;;;;;5050322;28;20021;-56
2022/06/30 11:21:08;;;;;;;7.13;4.93;;;28.50;99.40;;;;;;5049210;28;20400;-58
2022/06/30 11:23:45;;;;;;;6.75;4.55;;;28.50;99.90;;;;;;5047590;28;20036;-57
2022/06/30 11:29:02;;;;;;;7.43;5.03;;;29.00;98.30;;;;;;5034275;28;20047;-57
2022/06/30 11:31:34;;;;;;;13.25;5.55;;;28.90;97.70;;;;;;5033814;28;20505;-57
2022/06/30 11:34:06;;;;;;;15.02;5.57;;;28.90;98.00;;;;;;5033885;28;20017;-56
2022/06/30 11:36:33;;;;;;;11.80;6.32;;;28.80;98.40;;;;;;5034047;28;20487;-57
2022/06/30 11:39:06;;;;;;;10.00;5.90;;;29.10;98.00;;;;;;5034925;28;20025;-56
2022/06/30 11:44:18;;;;;;;9.02;5.82;;;29.30;96.70;;;;;;5033583;28;20654;-57
2022/06/30 11:47:04;;;;;;;16.05;6.15;;;29.30;96.10;;;;;;5015712;28;20022;-58
2022/06/30 11:49:48;;;;;;;9.25;4.63;;;29.60;97.10;;;;;;5042213;28;20056;-58
2022/06/30 11:52:20;;;;;;;10.35;6.32;;;29.80;97.40;;;;;;5033327;28;20070;-55
2022/06/30 11:54:55;;;;;;;10.93;6.00;;;29.40;96.60;;;;;;5034158;28;20030;-59
2022/06/30 11:57:23;;;;;;;8.98;5.65;;;29.30;96.00;;;;;;5044933;28;20036;-57
2022/06/30 11:59:51;;;;;;;11.13;6.15;;;29.60;96.10;;;;;;5052721;28;20123;-58
2022/06/30 12:02:18;;;;;;;13.40;5.53;;;29.60;95.50;;;;;;5052923;28;20032;-54
2022/06/30 12:04:44;;;;;;;13.50;7.88;;;29.80;95.70;;;;;;5053205;28;20025;-58
2022/06/30 12:07:13;;;;;;;11.60;7.10;;;30.20;96.40;;;;;;5052909;28;20021;-58
2022/06/30 12:09:40;;;;;;;10.93;6.90;;;30.20;95.80;;;;;;5051929;28;20428;-57
2022/06/30 12:12:06;;;;;;;14.50;7.07;;;30.40;95.70;;;;;;5052064;28;20021;-58
2022/06/30 12:14:35;;;;;;;13.23;6.60;;;30.70;95.00;;;;;;5050729;28;20504;-58
2022/06/30 12:17:01;;;;;;;23.50;8.10;;;30.70;94.00;;;;;;5050524;28;20039;-58
2022/06/30 12:19:26;;;;;;;10.93;6.88;;;30.70;94.80;;;;;;5051241;28;20455;-58
2022/06/30 12:21:53;;;;;;;13.00;7.57;;;30.90;94.10;;;;;;5034324;28;20033;-57
2022/06/30 12:24:19;;;;;;;13.73;6.88;;;31.20;94.80;;;;;;5052255;28;20017;-55
2022/06/30 12:26:56;;;;;;;13.68;5.97;;;31.90;92.10;;;;;;5052818;28;20151;-58
2022/06/30 12:29:24;;;;;;;11.38;7.10;;;32.10;91.40;;;;;;5052329;28;20021;-58
2022/06/30 12:32:07;;;;;;;9.63;4.97;;;32.50;91.20;;;;;;5052780;28;20033;-58
2022/06/30 12:34:52;;;;;;;14.27;5.72;;;33.30;90.00;;;;;;5052214;28;20388;-56
2022/06/30 12:37:26;;;;;;;8.15;4.82;;;33.90;86.20;;;;;;5051161;28;20036;-56
2022/06/30 12:39:58;;;;;;;10.63;3.97;;;34.10;80.80;;;;;;5052125;28;20029;-57
2022/06/30 12:42:26;;;;;;;9.02;4.35;;;33.70;78.40;;;;;;5052175;28;20032;-57
2022/06/30 12:44:52;;;;;;;9.40;3.88;;;34.30;76.30;;;;;;5052309;28;20506;-57
2022/06/30 12:47:18;;;;;;;8.20;4.22;;;34.80;78.70;;;;;;5052465;28;20037;-56
2022/06/30 12:49:44;;;;;;;8.85;4.18;;;35.00;74.30;;;;;;5051871;28;20384;-57